Ville-Marie, Canada
Current Conditions -  °F | °C
As of 8:50 AM on Friday 31 Oct 2014 (Local Time) from CYXR Reporting Station
Light Snow Light Snow  
Wind Chill: 18°   Ceiling: 3000
Heat Index: 28°   Visibility: 2.2mi
Dew Point: 27°   Wind: 12mph
Humidity: 93%   Direction: 360°N
Pressure: 30.15"   Gusts: 18mph
Location:  47.33°N, 79.43°W
Report Text: CYXR 311250Z AUTO 36010G16KT 2 1/4SM -SN OVC030 M02/M03 A3015 RMK ICG SLP223
Loading
Personal Weather Stations






























Interactive Weather Map
Tropical Storm Tracking
New forecast layout! Learn more

10-Day Weather Forecast

Advertisements
Track Severe Weather on mobile